Time;durP1;ratioP1;P1;durP2;ratioP2;P2;SDS_P1;SDS_P2;PMS_P1;PMS_P2;Temp;Humidity;BMP_temperature;BMP_pressure;BME280_temperature;BME280_humidity;BME280_pressure;Samples;Min_cycle;Max_cycle;Signal;HPM_P1;HPM_P2
2022/08/30 00:01:26;;;;;;;;;;;23.40;49.50;;;;;;5103354;28;19930;-61
2022/08/30 00:03:53;;;;;;;;;;;23.30;49.40;;;;;;5098796;28;19923;-61
2022/08/30 00:06:20;;;;;;;;;;;23.40;49.50;;;;;;5073998;28;19920;-61
2022/08/30 00:08:48;;;;;;;;;;;23.30;49.40;;;;;;5107557;27;20357;-61
2022/08/30 00:11:15;;;;;;;;;;;23.30;49.40;;;;;;5096428;28;19985;-61
2022/08/30 00:13:43;;;;;;;;;;;23.30;49.40;;;;;;5088894;28;19955;-61
2022/08/30 00:16:11;;;;;;;;;;;23.30;49.40;;;;;;5098055;28;19928;-60
2022/08/30 00:18:39;;;;;;;;;;;23.30;49.50;;;;;;5097610;28;19920;-61
2022/08/30 00:21:06;;;;;;;;;;;23.30;49.40;;;;;;5106590;28;19973;-61
2022/08/30 00:23:33;;;;;;;;;;;23.30;49.40;;;;;;5096949;27;19924;-61
2022/08/30 00:26:00;;;;;;;;;;;23.30;49.50;;;;;;5102719;28;19919;-60
2022/08/30 00:28:27;;;;;;;;;;;23.30;49.40;;;;;;5100836;28;19931;-61
2022/08/30 00:30:54;;;;;;;;;;;23.30;49.50;;;;;;5106478;28;19977;-61
2022/08/30 00:33:20;;;;;;;;;;;23.30;49.50;;;;;;5096899;28;19925;-61
2022/08/30 00:35:49;;;;;;;;;;;23.40;49.50;;;;;;5090197;28;20635;-61
2022/08/30 00:38:15;;;;;;;;;;;23.30;49.50;;;;;;5090220;28;19920;-61
2022/08/30 00:40:44;;;;;;;;;;;23.30;49.50;;;;;;5105215;28;19920;-61
2022/08/30 00:43:12;;;;;;;;;;;23.40;49.50;;;;;;5085374;28;20010;-61
2022/08/30 00:45:39;;;;;;;;;;;23.40;49.50;;;;;;5088707;28;19924;-61
2022/08/30 00:48:06;;;;;;;;;;;23.40;49.50;;;;;;5107595;27;20395;-61
2022/08/30 00:50:33;;;;;;;;;;;23.40;49.50;;;;;;5101329;28;19924;-61
2022/08/30 00:53:02;;;;;;;;;;;23.40;49.50;;;;;;5098921;28;20001;-61
2022/08/30 00:55:28;;;;;;;;;;;23.40;49.50;;;;;;5105192;28;19955;-61
2022/08/30 00:57:56;;;;;;;;;;;23.40;49.50;;;;;;5087686;28;19920;-61
2022/08/30 01:00:23;;;;;;;;;;;23.40;49.50;;;;;;5106101;28;20180;-61
2022/08/30 01:02:49;;;;;;;;;;;23.40;49.50;;;;;;5106199;27;19969;-61
2022/08/30 01:05:16;;;;;;;;;;;23.40;49.60;;;;;;5100231;28;19958;-61
2022/08/30 01:07:43;;;;;;;;;;;23.40;49.50;;;;;;5089389;28;20088;-61
2022/08/30 01:10:12;;;;;;;;;;;23.40;49.60;;;;;;5087224;28;20361;-61
2022/08/30 01:12:39;;;;;;;;;;;23.40;49.60;;;;;;5085759;28;19963;-61
2022/08/30 01:15:07;;;;;;;;;;;23.40;49.60;;;;;;5083411;28;20319;-62
2022/08/30 01:17:34;;;;;;;;;;;23.40;49.60;;;;;;5104524;28;19931;-61
2022/08/30 01:20:01;;;;;;;;;;;23.40;49.60;;;;;;5086024;28;19931;-61
2022/08/30 01:22:28;;;;;;;;;;;23.40;49.60;;;;;;5105608;28;19931;-61
2022/08/30 01:24:57;;;;;;;;;;;23.40;49.60;;;;;;5078112;28;20011;-61
2022/08/30 01:27:24;;;;;;;;;;;23.40;49.60;;;;;;5095638;28;19963;-61
2022/08/30 01:29:51;;;;;;;;;;;23.40;49.60;;;;;;5095467;28;19963;-61
2022/08/30 01:32:18;;;;;;;;;;;23.40;49.60;;;;;;5090121;28;20303;-61
2022/08/30 01:34:47;;;;;;;;;;;23.40;49.60;;;;;;5092433;28;19926;-60
2022/08/30 01:37:16;;;;;;;;;;;23.40;49.60;;;;;;5105075;28;19920;-61
2022/08/30 01:39:43;;;;;;;;;;;23.40;49.60;;;;;;5095688;28;20277;-60
2022/08/30 01:42:12;;;;;;;;;;;23.40;49.60;;;;;;5088489;28;19926;-60
2022/08/30 01:44:39;;;;;;;;;;;23.40;49.50;;;;;;5105142;28;19926;-61
2022/08/30 01:47:06;;;;;;;;;;;23.40;49.60;;;;;;5098484;28;20383;-61
2022/08/30 01:49:32;;;;;;;;;;;23.40;49.60;;;;;;5114043;28;20048;-61
2022/08/30 01:51:59;;;;;;;;;;;23.40;49.50;;;;;;5089442;28;20265;-61
2022/08/30 01:54:26;;;;;;;;;;;23.40;49.50;;;;;;5126536;27;19920;-60
2022/08/30 01:56:53;;;;;;;;;;;23.40;49.50;;;;;;5117866;27;19976;-60
2022/08/30 01:59:21;;;;;;;;;;;23.40;49.50;;;;;;5077103;28;19921;-61
2022/08/30 02:01:48;;;;;;;;;;;23.40;49.50;;;;;;5104370;28;19981;-61
2022/08/30 02:04:15;;;;;;;;;;;23.40;49.50;;;;;;5094232;28;19920;-61
2022/08/30 02:06:43;;;;;;;;;;;23.30;49.40;;;;;;5082721;28;19920;-61
2022/08/30 02:09:10;;;;;;;;;;;23.30;49.50;;;;;;5097173;28;19927;-61
2022/08/30 02:11:37;;;;;;;;;;;23.30;49.50;;;;;;5093571;28;19920;-61
2022/08/30 02:14:04;;;;;;;;;;;23.30;49.40;;;;;;5092093;28;19931;-61
2022/08/30 02:16:32;;;;;;;;;;;23.30;49.40;;;;;;5086517;28;19993;-61
2022/08/30 02:18:59;;;;;;;;;;;23.40;49.50;;;;;;5084238;28;20018;-61
2022/08/30 02:21:26;;;;;;;;;;;23.30;49.40;;;;;;5093642;28;19920;-61
2022/08/30 02:23:53;;;;;;;;;;;23.40;49.50;;;;;;5092115;28;20014;-61
2022/08/30 02:26:20;;;;;;;;;;;23.30;49.50;;;;;;5113152;27;19927;-61
2022/08/30 02:28:47;;;;;;;;;;;23.30;49.50;;;;;;5087804;28;20276;-61
2022/08/30 02:31:13;;;;;;;;;;;23.30;49.50;;;;;;5104573;28;20458;-60
2022/08/30 02:33:41;;;;;;;;;;;23.30;49.40;;;;;;5108795;28;20276;-61
2022/08/30 02:36:08;;;;;;;;;;;23.30;49.40;;;;;;5102765;28;19920;-61
2022/08/30 02:38:35;;;;;;;;;;;23.30;49.40;;;;;;5091610;28;19958;-61
2022/08/30 02:41:02;;;;;;;;;;;23.40;49.50;;;;;;5109180;28;19920;-61
2022/08/30 02:43:28;;;;;;;;;;;23.30;49.40;;;;;;5102362;28;20006;-61
2022/08/30 02:45:55;;;;;;;;;;;23.30;49.40;;;;;;5106563;28;19950;-61
2022/08/30 02:48:22;;;;;;;;;;;23.30;50.00;;;;;;5089944;28;19921;-60
2022/08/30 02:50:51;;;;;;;;;;;23.30;49.50;;;;;;5102338;28;20012;-60
2022/08/30 02:53:17;;;;;;;;;;;23.30;49.40;;;;;;5090267;28;19987;-61
2022/08/30 02:55:44;;;;;;;;;;;23.40;49.50;;;;;;5107071;28;19985;-61
2022/08/30 02:58:11;;;;;;;;;;;23.30;49.40;;;;;;5073939;28;19920;-60
2022/08/30 03:00:38;;;;;;;;;;;23.30;49.40;;;;;;5093935;28;19920;-61
2022/08/30 03:03:06;;;;;;;;;;;23.30;49.40;;;;;;5087834;28;20011;-61
2022/08/30 03:05:33;;;;;;;;;;;23.30;49.40;;;;;;5095182;28;20143;-61
2022/08/30 03:08:01;;;;;;;;;;;23.30;49.40;;;;;;5092896;28;19932;-61
2022/08/30 03:10:28;;;;;;;;;;;23.30;49.40;;;;;;5089603;28;19984;-61
2022/08/30 03:12:55;;;;;;;;;;;23.30;49.40;;;;;;5108416;28;19963;-61
2022/08/30 03:15:24;;;;;;;;;;;23.30;49.40;;;;;;5087348;28;19924;-61
2022/08/30 03:17:51;;;;;;;;;;;23.30;49.40;;;;;;5108231;28;19924;-61
2022/08/30 03:20:18;;;;;;;;;;;23.30;49.40;;;;;;5102903;28;19924;-61
2022/08/30 03:22:45;;;;;;;;;;;23.30;49.40;;;;;;5104823;28;19987;-61
2022/08/30 03:25:13;;;;;;;;;;;23.30;49.40;;;;;;5082989;28;20016;-61
2022/08/30 03:27:40;;;;;;;;;;;23.30;49.40;;;;;;5091272;28;19943;-61
2022/08/30 03:30:07;;;;;;;;;;;23.30;49.40;;;;;;5092742;28;19920;-61
2022/08/30 03:32:34;;;;;;;;;;;23.30;49.40;;;;;;5101435;28;20011;-62
2022/08/30 03:35:00;;;;;;;;;;;23.30;49.90;;;;;;5099952;28;20369;-62
2022/08/30 03:37:27;;;;;;;;;;;23.30;49.30;;;;;;5108379;27;19973;-61
2022/08/30 03:39:54;;;;;;;;;;;23.30;49.30;;;;;;5075291;28;20022;-61
2022/08/30 03:42:23;;;;;;;;;;;23.30;49.30;;;;;;5084419;28;19924;-61
2022/08/30 03:44:49;;;;;;;;;;;23.30;49.30;;;;;;5097941;28;19924;-62
2022/08/30 03:47:16;;;;;;;;;;;23.30;49.30;;;;;;5100147;28;19928;-61
2022/08/30 03:49:43;;;;;;;;;;;23.30;49.30;;;;;;5085397;28;19920;-61
2022/08/30 03:52:10;;;;;;;;;;;23.30;49.30;;;;;;5098471;28;19981;-61
2022/08/30 03:54:37;;;;;;;;;;;23.30;49.30;;;;;;5089457;28;20315;-61
2022/08/30 03:57:04;;;;;;;;;;;23.30;49.30;;;;;;5089994;28;19931;-62
2022/08/30 03:59:32;;;;;;;;;;;23.30;49.40;;;;;;5091655;28;19954;-62
2022/08/30 04:01:59;;;;;;;;;;;23.30;49.40;;;;;;5107052;28;19951;-62
2022/08/30 04:04:26;;;;;;;;;;;23.30;50.00;;;;;;5088611;28;19924;-61
2022/08/30 04:06:53;;;;;;;;;;;23.30;49.50;;;;;;5095467;28;20149;-62
2022/08/30 04:09:19;;;;;;;;;;;23.30;49.50;;;;;;5091300;28;19920;-62
2022/08/30 04:11:46;;;;;;;;;;;23.30;49.60;;;;;;5094531;28;19929;-62
2022/08/30 04:14:13;;;;;;;;;;;23.30;49.60;;;;;;5102387;28;20033;-62
2022/08/30 04:16:41;;;;;;;;;;;23.30;49.60;;;;;;5088298;28;19924;-62
2022/08/30 04:19:08;;;;;;;;;;;23.30;49.70;;;;;;5078336;28;19924;-62
2022/08/30 04:21:35;;;;;;;;;;;23.30;49.70;;;;;;5093488;28;20004;-62
2022/08/30 04:24:01;;;;;;;;;;;23.30;49.80;;;;;;5088931;28;19920;-60
2022/08/30 04:26:28;;;;;;;;;;;23.20;49.70;;;;;;5089291;28;20015;-62
2022/08/30 04:28:55;;;;;;;;;;;23.20;49.80;;;;;;5097519;28;19921;-60
2022/08/30 04:31:22;;;;;;;;;;;23.20;49.80;;;;;;5108952;27;19932;-61
2022/08/30 04:33:50;;;;;;;;;;;23.20;49.90;;;;;;5092244;28;19940;-61
2022/08/30 04:36:16;;;;;;;;;;;23.20;49.90;;;;;;5109267;28;19920;-62
2022/08/30 04:38:43;;;;;;;;;;;23.30;50.10;;;;;;5106416;28;19951;-62
2022/08/30 04:41:11;;;;;;;;;;;23.30;50.10;;;;;;5093546;28;19927;-61
2022/08/30 04:43:41;;;;;;;;;;;23.30;50.20;;;;;;5119274;27;19983;-62
2022/08/30 04:46:12;;;;;;;;;;;23.30;50.30;;;;;;5090829;28;19920;-61
2022/08/30 04:48:39;;;;;;;;;;;23.30;50.30;;;;;;5090048;28;19920;-61
2022/08/30 04:51:08;;;;;;;;;;;23.30;50.30;;;;;;5074368;28;20049;-61
2022/08/30 04:53:35;;;;;;;;;;;23.30;50.30;;;;;;5111705;27;19959;-62
2022/08/30 04:56:06;;;;;;;;;;;23.30;50.40;;;;;;5086131;28;19924;-62
2022/08/30 04:58:33;;;;;;;;;;;23.30;50.40;;;;;;5106057;28;19981;-62
2022/08/30 05:01:00;;;;;;;;;;;23.30;50.50;;;;;;5086555;28;19966;-62
2022/08/30 05:03:26;;;;;;;;;;;23.30;50.50;;;;;;5088277;28;20424;-62
2022/08/30 05:05:53;;;;;;;;;;;23.30;50.50;;;;;;5091344;28;19932;-62
2022/08/30 05:08:21;;;;;;;;;;;23.30;50.60;;;;;;5089950;28;19931;-62
2022/08/30 05:10:48;;;;;;;;;;;23.30;50.60;;;;;;5104453;28;20019;-62
2022/08/30 05:13:15;;;;;;;;;;;23.30;50.70;;;;;;5089163;28;19967;-61
2022/08/30 05:15:42;;;;;;;;;;;23.30;50.60;;;;;;5090810;28;19920;-61
2022/08/30 05:18:09;;;;;;;;;;;23.30;50.70;;;;;;5088177;28;20397;-61
2022/08/30 05:20:36;;;;;;;;;;;23.30;50.70;;;;;;5085517;28;20015;-61
2022/08/30 05:23:02;;;;;;;;;;;23.30;50.80;;;;;;5103928;28;19932;-61
2022/08/30 05:25:31;;;;;;;;;;;23.30;50.80;;;;;;5088379;28;19924;-61
2022/08/30 05:27:58;;;;;;;;;;;23.30;50.80;;;;;;5089234;28;19966;-61
2022/08/30 05:30:25;;;;;;;;;;;23.30;50.80;;;;;;5104789;28;20204;-61
2022/08/30 05:32:52;;;;;;;;;;;23.30;50.90;;;;;;5087309;28;19965;-61
2022/08/30 05:35:19;;;;;;;;;;;23.30;50.90;;;;;;5081913;28;20005;-61
2022/08/30 05:37:46;;;;;;;;;;;23.30;50.90;;;;;;5083544;28;19932;-61
2022/08/30 05:40:16;;;;;;;;;;;23.30;50.90;;;;;;5085116;28;20258;-61
2022/08/30 05:42:44;;;;;;;;;;;23.30;50.90;;;;;;5095371;28;19959;-61
2022/08/30 05:45:11;;;;;;;;;;;23.30;50.90;;;;;;5105235;28;19977;-62
2022/08/30 05:47:38;;;;;;;;;;;23.30;51.00;;;;;;5099205;28;19920;-61
2022/08/30 05:50:05;;;;;;;;;;;23.30;51.00;;;;;;5090075;28;19967;-62
2022/08/30 05:52:34;;;;;;;;;;;23.30;51.00;;;;;;5078232;28;19920;-61
2022/08/30 05:55:02;;;;;;;;;;;23.30;51.10;;;;;;5103312;28;19932;-62
2022/08/30 05:57:31;;;;;;;;;;;23.30;51.10;;;;;;5082380;28;19958;-62
2022/08/30 05:59:59;;;;;;;;;;;23.30;51.10;;;;;;5085974;28;19931;-62
2022/08/30 06:02:26;;;;;;;;;;;23.30;51.10;;;;;;5088724;28;19978;-61
2022/08/30 06:04:52;;;;;;;;;;;23.30;51.10;;;;;;5070515;28;19924;-61
2022/08/30 06:07:19;;;;;;;;;;;23.30;51.10;;;;;;5072767;28;20358;-61
2022/08/30 06:09:46;;;;;;;;;;;23.30;51.10;;;;;;5066775;28;20427;-62
2022/08/30 06:12:13;;;;;;;;;;;23.30;51.20;;;;;;5105306;28;19973;-62
2022/08/30 06:14:39;;;;;;;;;;;23.30;51.20;;;;;;5086886;28;19940;-62
2022/08/30 06:17:07;;;;;;;;;;;23.30;51.20;;;;;;5081639;28;19977;-62
2022/08/30 06:19:34;;;;;;;;;;;23.30;51.20;;;;;;5099032;28;20285;-62
2022/08/30 06:22:01;;;;;;;;;;;23.30;51.30;;;;;;5081774;28;19963;-62
2022/08/30 06:24:27;;;;;;;;;;;23.30;51.30;;;;;;5088317;28;19959;-62
2022/08/30 06:26:54;;;;;;;;;;;23.30;51.30;;;;;;5086029;28;20161;-61
2022/08/30 06:29:21;;;;;;;;;;;23.30;51.30;;;;;;5089538;28;20319;-62
2022/08/30 06:31:48;;;;;;;;;;;23.30;51.30;;;;;;5083365;28;19921;-62
2022/08/30 06:34:16;;;;;;;;;;;23.30;51.30;;;;;;5099923;28;19952;-62
2022/08/30 06:36:42;;;;;;;;;;;23.30;51.40;;;;;;5103277;28;19923;-62
2022/08/30 06:39:09;;;;;;;;;;;23.30;51.40;;;;;;5078834;28;19954;-62
2022/08/30 06:41:36;;;;;;;;;;;23.30;51.40;;;;;;5091428;28;19928;-62
2022/08/30 06:44:03;;;;;;;;;;;23.30;51.40;;;;;;5086022;28;20015;-62
2022/08/30 06:46:31;;;;;;;;;;;23.30;51.50;;;;;;5106584;28;19955;-61
2022/08/30 06:48:58;;;;;;;;;;;23.30;51.50;;;;;;5096405;28;19921;-62
2022/08/30 06:51:27;;;;;;;;;;;23.30;51.50;;;;;;5095683;28;20001;-62
2022/08/30 06:53:54;;;;;;;;;;;23.30;51.50;;;;;;5102001;28;20022;-62
2022/08/30 06:56:20;;;;;;;;;;;23.30;51.50;;;;;;5088530;28;19942;-62
2022/08/30 06:58:47;;;;;;;;;;;23.30;51.50;;;;;;5107111;28;20153;-62
2022/08/30 07:01:14;;;;;;;;;;;23.30;51.50;;;;;;5082703;28;19928;-62
2022/08/30 07:03:41;;;;;;;;;;;23.30;51.40;;;;;;5084881;28;20029;-62
2022/08/30 07:06:08;;;;;;;;;;;23.30;51.40;;;;;;5103585;28;19925;-62
2022/08/30 07:08:36;;;;;;;;;;;23.30;51.40;;;;;;5103452;28;20369;-62
2022/08/30 07:11:04;;;;;;;;;;;23.30;51.40;;;;;;5095094;28;19975;-62
2022/08/30 07:13:31;;;;;;;;;;;23.30;51.40;;;;;;5093230;28;19920;-62
2022/08/30 07:15:57;;;;;;;;;;;23.30;51.40;;;;;;5101530;28;19969;-62
2022/08/30 07:21:09;;;;;;;;;;;23.30;51.30;;;;;;5104557;28;19920;-62
2022/08/30 07:23:38;;;;;;;;;;;23.30;51.30;;;;;;5102079;28;19935;-61
2022/08/30 07:26:05;;;;;;;;;;;23.30;51.30;;;;;;5096859;28;19974;-62
2022/08/30 07:28:31;;;;;;;;;;;23.30;51.30;;;;;;5085971;28;19936;-61
2022/08/30 07:30:58;;;;;;;;;;;23.30;51.30;;;;;;5081627;28;20000;-62
2022/08/30 07:33:25;;;;;;;;;;;23.30;51.30;;;;;;5106228;27;19954;-62
2022/08/30 07:35:52;;;;;;;;;;;23.30;51.40;;;;;;5085820;28;19925;-62
2022/08/30 07:38:19;;;;;;;;;;;23.30;51.40;;;;;;5105883;27;19978;-61
2022/08/30 07:40:47;;;;;;;;;;;23.30;51.40;;;;;;5104020;28;19920;-62
2022/08/30 07:43:13;;;;;;;;;;;23.30;51.50;;;;;;5103410;28;20336;-62
2022/08/30 07:45:40;;;;;;;;;;;23.30;51.40;;;;;;5104609;28;19985;-61
2022/08/30 07:48:10;;;;;;;;;;;23.30;51.50;;;;;;5102491;28;20385;-63
2022/08/30 07:50:37;;;;;;;;;;;23.30;51.40;;;;;;5088855;28;19928;-62
2022/08/30 07:53:03;;;;;;;;;;;23.30;51.40;;;;;;5099214;27;19924;-62
2022/08/30 07:55:30;;;;;;;;;;;23.30;51.40;;;;;;5077522;28;19975;-62
2022/08/30 07:57:58;;;;;;;;;;;23.40;51.40;;;;;;5105097;28;20012;-62
2022/08/30 08:00:25;;;;;;;;;;;23.40;51.50;;;;;;5102959;27;20123;-62
2022/08/30 08:02:52;;;;;;;;;;;23.40;51.40;;;;;;5095278;28;20258;-61
2022/08/30 08:05:19;;;;;;;;;;;23.40;51.40;;;;;;5104476;28;19920;-62
2022/08/30 08:07:45;;;;;;;;;;;23.40;51.40;;;;;;5080548;28;19983;-62
2022/08/30 08:10:12;;;;;;;;;;;23.40;51.40;;;;;;5100462;28;19920;-62
2022/08/30 08:12:39;;;;;;;;;;;23.40;51.40;;;;;;5102462;28;19924;-61
2022/08/30 08:15:08;;;;;;;;;;;23.40;51.30;;;;;;5087900;28;19930;-61
2022/08/30 08:17:35;;;;;;;;;;;23.50;51.40;;;;;;5099069;28;19924;-61
2022/08/30 08:20:01;;;;;;;;;;;23.50;51.40;;;;;;5100293;28;19920;-61
2022/08/30 08:22:28;;;;;;;;;;;23.50;51.40;;;;;;5098801;28;19935;-61
2022/08/30 08:24:55;;;;;;;;;;;23.50;51.40;;;;;;5104031;28;20222;-61
2022/08/30 08:27:23;;;;;;;;;;;23.50;51.40;;;;;;5084162;28;20332;-61
2022/08/30 08:29:50;;;;;;;;;;;23.50;51.40;;;;;;5082263;28;20339;-61
2022/08/30 08:32:19;;;;;;;;;;;23.50;51.50;;;;;;5075073;28;20383;-61
2022/08/30 08:34:45;;;;;;;;;;;23.50;52.00;;;;;;5103603;27;19973;-60
2022/08/30 08:37:12;;;;;;;;;;;23.50;51.50;;;;;;5094249;28;19936;-60
2022/08/30 08:39:39;;;;;;;;;;;23.50;51.40;;;;;;5087774;28;19950;-61
2022/08/30 08:42:08;;;;;;;;;;;23.50;51.40;;;;;;5089947;28;19928;-63
2022/08/30 08:44:40;;;;;;;;;;;23.50;51.50;;;;;;5104256;28;19919;-61
2022/08/30 08:47:09;;;;;;;;;;;23.50;51.60;;;;;;5100094;28;19931;-61
2022/08/30 08:49:37;;;;;;;;;;;23.50;51.60;;;;;;5080667;28;19920;-61
2022/08/30 08:54:50;;;;;;;;;;;23.50;51.60;;;;;;5097756;28;19934;-61
2022/08/30 08:57:17;;;;;;;;;;;23.50;51.60;;;;;;5072435;28;19920;-61
2022/08/30 08:59:44;;;;;;;;;;;23.50;51.60;;;;;;5097547;28;20030;-61
2022/08/30 09:02:19;;;;;;;;;;;23.50;51.60;;;;;;5084320;28;19934;-61
2022/08/30 09:04:47;;;;;;;;;;;23.60;51.60;;;;;;5086497;28;20365;-61
2022/08/30 09:07:14;;;;;;;;;;;23.60;51.60;;;;;;5091119;28;19974;-61
2022/08/30 09:09:41;;;;;;;;;;;23.60;51.60;;;;;;5090738;28;20035;-61
2022/08/30 09:12:08;;;;;;;;;;;23.60;51.60;;;;;;5083426;28;19932;-60
2022/08/30 09:14:35;;;;;;;;;;;23.60;51.60;;;;;;5094305;28;19974;-60
2022/08/30 09:17:03;;;;;;;;;;;23.60;51.60;;;;;;5077585;28;19920;-60
2022/08/30 09:19:40;;;;;;;;;;;23.60;51.60;;;;;;5101015;28;19989;-61
2022/08/30 09:22:14;;;;;;;;;;;23.60;51.60;;;;;;5087677;28;19963;-61
2022/08/30 09:24:42;;;;;;;;;;;23.60;51.60;;;;;;5090308;28;19927;-60
2022/08/30 09:27:36;;;;;;;;;;;23.60;51.60;;;;;;5085985;28;19924;-61
2022/08/30 09:30:05;;;;;;;;;;;23.60;51.60;;;;;;5052444;28;19928;-61
2022/08/30 09:32:32;;;;;;;;;;;23.60;51.60;;;;;;5088995;28;19924;-61
2022/08/30 09:34:59;;;;;;;;;;;23.60;51.50;;;;;;5083175;28;19964;-61
2022/08/30 09:37:29;;;;;;;;;;;23.60;51.50;;;;;;5087559;28;19931;-61
2022/08/30 09:39:56;;;;;;;;;;;23.60;51.50;;;;;;5097830;28;20042;-61
2022/08/30 09:42:24;;;;;;;;;;;23.60;51.60;;;;;;5097733;28;19920;-61
2022/08/30 09:44:51;;;;;;;;;;;23.60;51.50;;;;;;5082920;28;19921;-61
2022/08/30 09:47:19;;;;;;;;;;;23.60;51.60;;;;;;5095073;28;20015;-61
2022/08/30 09:49:45;;;;;;;;;;;23.60;52.10;;;;;;5087136;28;19927;-61
2022/08/30 09:52:15;;;;;;;;;;;23.60;51.50;;;;;;5088151;28;19943;-60
2022/08/30 09:54:46;;;;;;;;;;;23.60;51.50;;;;;;5084393;28;19975;-61
2022/08/30 09:57:16;;;;;;;;;;;23.60;51.50;;;;;;5078261;28;20016;-61
2022/08/30 09:59:45;;;;;;;;;;;23.60;51.50;;;;;;5098999;28;19969;-61
2022/08/30 10:02:17;;;;;;;;;;;23.70;51.60;;;;;;5087822;28;19979;-60
2022/08/30 10:04:45;;;;;;;;;;;23.60;51.50;;;;;;5093364;28;20373;-61
2022/08/30 10:07:13;;;;;;;;;;;23.60;51.50;;;;;;5076681;28;19970;-60
2022/08/30 10:09:41;;;;;;;;;;;23.60;51.50;;;;;;5100084;28;19971;-61
2022/08/30 10:12:11;;;;;;;;;;;23.70;51.50;;;;;;5105392;28;19971;-61
2022/08/30 10:14:44;;;;;;;;;;;23.60;51.40;;;;;;5094277;28;19927;-61
2022/08/30 10:17:12;;;;;;;;;;;23.70;51.60;;;;;;5078759;28;20003;-61
2022/08/30 10:19:43;;;;;;;;;;;23.70;51.60;;;;;;5084653;28;19961;-61
2022/08/30 10:22:11;;;;;;;;;;;23.70;51.50;;;;;;5084197;28;19932;-61
2022/08/30 10:24:39;;;;;;;;;;;23.70;51.60;;;;;;5078720;28;20426;-61
2022/08/30 10:27:07;;;;;;;;;;;23.70;51.50;;;;;;5090410;28;20320;-62
2022/08/30 10:29:36;;;;;;;;;;;23.70;51.50;;;;;;5092648;27;19966;-61
2022/08/30 10:32:04;;;;;;;;;;;23.70;51.50;;;;;;5088910;28;20144;-61
2022/08/30 10:34:32;;;;;;;;;;;23.70;51.50;;;;;;5103142;28;19920;-61
2022/08/30 10:37:01;;;;;;;;;;;23.70;51.50;;;;;;5088315;28;19969;-61
2022/08/30 10:39:28;;;;;;;;;;;23.70;51.50;;;;;;5095601;28;19963;-61
2022/08/30 10:41:58;;;;;;;;;;;23.70;51.50;;;;;;5085654;28;19973;-61
2022/08/30 10:44:26;;;;;;;;;;;23.70;51.40;;;;;;5094674;28;19924;-60
2022/08/30 10:47:01;;;;;;;;;;;23.70;51.20;;;;;;5076858;28;19980;-61
2022/08/30 10:49:28;;;;;;;;;;;23.70;51.10;;;;;;5086540;28;19969;-61
2022/08/30 10:51:55;;;;;;;;;;;23.60;50.90;;;;;;5102360;28;19920;-61
2022/08/30 10:54:23;;;;;;;;;;;23.60;50.80;;;;;;5098491;28;19973;-61
2022/08/30 10:56:51;;;;;;;;;;;23.60;50.70;;;;;;5079825;28;20026;-61
2022/08/30 10:59:17;;;;;;;;;;;23.50;50.50;;;;;;5098838;28;19931;-60
2022/08/30 11:02:00;;;;;;;;;;;23.50;50.50;;;;;;5086778;28;19969;-61
2022/08/30 11:04:51;;;;;;;;;;;23.50;50.50;;;;;;5095268;27;19964;-61
2022/08/30 11:07:21;;;;;;;;;;;23.50;50.50;;;;;;5077249;27;20316;-60
2022/08/30 11:09:51;;;;;;;;;;;23.40;50.50;;;;;;5083346;28;19931;-60
2022/08/30 11:12:31;;;;;;;;;;;23.40;50.40;;;;;;5104613;28;19920;-60
2022/08/30 11:14:58;;;;;;;;;;;23.40;50.50;;;;;;5085564;28;20028;-61
2022/08/30 11:17:28;;;;;;;;;;;23.40;50.60;;;;;;5093590;28;19956;-61
2022/08/30 11:19:55;;;;;;;;;;;23.30;50.50;;;;;;5099516;28;19999;-61
2022/08/30 11:22:23;;;;;;;;;;;23.30;50.60;;;;;;5100837;27;19940;-61
2022/08/30 11:25:00;;;;;;;;;;;23.30;50.70;;;;;;5077808;28;19929;-60
2022/08/30 11:27:39;;;;;;;;;;;23.30;50.70;;;;;;5105612;28;19931;-60
2022/08/30 11:30:21;;;;;;;;;;;23.40;50.80;;;;;;5094225;28;20020;-61
2022/08/30 11:32:59;;;;;;;;;;;23.30;50.70;;;;;;5090824;28;19920;-61
2022/08/30 11:35:36;;;;;;;;;;;23.30;50.70;;;;;;5103283;28;20222;-60
2022/08/30 11:38:10;;;;;;;;;;;23.40;50.60;;;;;;5099008;28;19943;-60
2022/08/30 11:40:46;;;;;;;;;;;23.40;50.60;;;;;;5083162;28;19924;-60
2022/08/30 11:43:31;;;;;;;;;;;23.40;50.60;;;;;;5077097;28;19924;-60
2022/08/30 11:46:08;;;;;;;;;;;23.40;50.50;;;;;;5091844;28;20011;-61
2022/08/30 11:48:41;;;;;;;;;;;23.40;50.50;;;;;;5077550;28;19955;-61
2022/08/30 11:51:09;;;;;;;;;;;23.40;50.40;;;;;;5097411;27;20396;-60
2022/08/30 11:53:37;;;;;;;;;;;23.40;50.30;;;;;;5100760;28;19989;-60
2022/08/30 11:56:07;;;;;;;;;;;23.40;50.30;;;;;;5078731;28;20038;-61
2022/08/30 11:58:39;;;;;;;;;;;23.40;50.20;;;;;;5087669;28;20287;-60
2022/08/30 12:01:17;;;;;;;;;;;23.40;50.20;;;;;;5080587;28;19944;-60
2022/08/30 12:03:45;;;;;;;;;;;23.40;50.10;;;;;;5083108;28;19920;-60
2022/08/30 12:06:12;;;;;;;;;;;23.40;50.10;;;;;;5091523;27;19950;-60
2022/08/30 12:08:43;;;;;;;;;;;23.40;50.00;;;;;;5092211;28;19924;-60
2022/08/30 12:11:25;;;;;;;;;;;23.40;50.00;;;;;;5103459;28;19973;-60
2022/08/30 12:13:52;;;;;;;;;;;23.40;49.90;;;;;;5089650;28;20035;-61
2022/08/30 12:16:20;;;;;;;;;;;23.40;50.00;;;;;;5099381;28;20079;-60
2022/08/30 12:18:48;;;;;;;;;;;23.40;50.00;;;;;;5081810;28;19921;-61
2022/08/30 12:21:25;;;;;;;;;;;23.40;50.00;;;;;;5098988;28;19920;-61
2022/08/30 12:23:52;;;;;;;;;;;23.40;50.10;;;;;;5092585;28;19928;-61
2022/08/30 12:26:28;;;;;;;;;;;23.40;50.10;;;;;;5083288;28;20342;-60
2022/08/30 12:29:05;;;;;;;;;;;23.40;50.10;;;;;;5080663;28;19931;-61
2022/08/30 12:31:32;;;;;;;;;;;23.40;50.10;;;;;;5082785;28;19924;-61
2022/08/30 12:34:01;;;;;;;;;;;23.40;50.10;;;;;;5082600;28;19977;-61
2022/08/30 12:36:33;;;;;;;;;;;23.40;50.10;;;;;;5100918;28;19936;-60
2022/08/30 12:39:07;;;;;;;;;;;23.40;50.10;;;;;;5080323;28;19998;-61
2022/08/30 12:41:34;;;;;;;;;;;23.40;50.00;;;;;;5079578;28;19986;-60
2022/08/30 12:44:00;;;;;;;;;;;23.40;50.00;;;;;;5085585;28;20272;-60
2022/08/30 12:46:27;;;;;;;;;;;23.40;50.00;;;;;;5079025;28;19932;-61
2022/08/30 12:48:54;;;;;;;;;;;23.40;50.00;;;;;;5081180;28;20041;-61
2022/08/30 12:51:34;;;;;;;;;;;23.40;50.00;;;;;;5071605;28;19989;-61
2022/08/30 12:54:09;;;;;;;;;;;23.40;49.90;;;;;;5095338;28;19955;-60
2022/08/30 12:56:49;;;;;;;;;;;23.40;50.00;;;;;;5096088;28;19921;-60
2022/08/30 12:59:30;;;;;;;;;;;23.40;50.00;;;;;;5075697;28;19927;-61
2022/08/30 13:02:05;;;;;;;;;;;23.40;49.90;;;;;;5082062;28;20410;-60
2022/08/30 13:04:32;;;;;;;;;;;23.40;49.90;;;;;;5087314;28;19920;-60
2022/08/30 13:07:01;;;;;;;;;;;23.40;49.80;;;;;;5078148;28;19931;-61
2022/08/30 13:09:28;;;;;;;;;;;23.50;49.80;;;;;;5084688;28;20385;-62
2022/08/30 13:11:55;;;;;;;;;;;23.50;49.80;;;;;;5092935;28;19920;-61
2022/08/30 13:14:30;;;;;;;;;;;23.40;49.70;;;;;;5077742;28;19920;-61
2022/08/30 13:17:05;;;;;;;;;;;23.50;49.70;;;;;;5096921;28;19970;-60
2022/08/30 13:19:32;;;;;;;;;;;23.50;49.70;;;;;;5079998;28;19959;-62
2022/08/30 13:22:00;;;;;;;;;;;23.40;49.60;;;;;;5087096;28;19938;-61
2022/08/30 13:24:27;;;;;;;;;;;23.50;49.60;;;;;;5083758;28;19967;-61
2022/08/30 13:26:54;;;;;;;;;;;23.50;49.50;;;;;;5086214;28;19989;-61
2022/08/30 13:29:21;;;;;;;;;;;23.50;49.40;;;;;;5077400;28;19924;-60
2022/08/30 13:31:48;;;;;;;;;;;23.40;49.30;;;;;;5081857;28;19963;-61
2022/08/30 13:34:17;;;;;;;;;;;23.50;49.30;;;;;;5102524;28;19922;-62
2022/08/30 13:36:45;;;;;;;;;;;23.50;49.30;;;;;;5079504;28;19967;-61
2022/08/30 13:39:13;;;;;;;;;;;23.50;49.30;;;;;;5081033;28;19920;-61
2022/08/30 13:41:40;;;;;;;;;;;23.50;49.20;;;;;;5086291;28;19920;-61
2022/08/30 13:44:07;;;;;;;;;;;23.40;49.10;;;;;;5084128;28;19966;-61
2022/08/30 13:46:33;;;;;;;;;;;23.50;49.20;;;;;;5089115;28;19920;-61
2022/08/30 13:49:04;;;;;;;;;;;23.50;49.20;;;;;;5103830;27;20010;-60
2022/08/30 13:51:30;;;;;;;;;;;23.50;49.20;;;;;;5086490;28;19926;-61
2022/08/30 13:53:57;;;;;;;;;;;23.50;49.10;;;;;;5100113;28;19950;-61
2022/08/30 13:56:26;;;;;;;;;;;23.50;49.10;;;;;;5092394;28;19950;-61
2022/08/30 13:58:53;;;;;;;;;;;23.50;49.10;;;;;;5098908;28;19924;-61
2022/08/30 14:01:20;;;;;;;;;;;23.50;49.00;;;;;;5088567;28;19981;-61
2022/08/30 14:03:46;;;;;;;;;;;23.50;49.00;;;;;;5088723;28;19965;-62
2022/08/30 14:06:13;;;;;;;;;;;23.50;49.00;;;;;;5087488;28;19955;-60
2022/08/30 14:08:40;;;;;;;;;;;23.50;48.90;;;;;;5098001;28;19932;-61
2022/08/30 14:11:08;;;;;;;;;;;23.50;48.90;;;;;;5103005;28;19963;-62
2022/08/30 14:13:36;;;;;;;;;;;23.50;48.90;;;;;;5085223;28;19921;-61
2022/08/30 14:16:04;;;;;;;;;;;23.50;48.90;;;;;;5087418;28;20319;-61
2022/08/30 14:18:31;;;;;;;;;;;23.50;48.90;;;;;;5082699;28;19932;-62
2022/08/30 14:20:59;;;;;;;;;;;23.50;48.80;;;;;;5101197;28;19920;-62
2022/08/30 14:23:25;;;;;;;;;;;23.50;48.70;;;;;;5092561;28;19924;-62
2022/08/30 14:25:52;;;;;;;;;;;23.50;48.70;;;;;;5095513;28;20363;-62
2022/08/30 14:28:19;;;;;;;;;;;23.50;48.70;;;;;;5077766;28;19941;-61